Time;durP1;ratioP1;P1;durP2;ratioP2;P2;SDS_P1;SDS_P2;PMS_P1;PMS_P2;Temp;Humidity;BMP_temperature;BMP_pressure;BME280_temperature;BME280_humidity;BME280_pressure;Samples;Min_cycle;Max_cycle;Signal;HPM_P1;HPM_P2
2021/12/29 00:02:12;;;;;;;17.10;9.02;;;103.30;2227.20;;;;;;5087347;28;19912;-74
2021/12/29 00:04:38;;;;;;;17.58;9.60;;;103.20;2227.20;;;;;;5087293;28;20361;-74
2021/12/29 00:07:06;;;;;;;;;;;103.30;2227.20;;;;;;5079878;28;20056;-76
2021/12/29 00:09:36;;;;;;;13.30;7.15;;;103.30;2227.20;;;;;;5064836;28;20001;-79
2021/12/29 00:12:02;;;;;;;16.20;8.30;;;103.20;2227.20;;;;;;5063300;28;20420;-78
2021/12/29 00:14:28;;;;;;;;;;;103.20;2227.20;;;;;;5064399;28;20019;-74
2021/12/29 00:16:56;;;;;;;14.27;7.03;;;103.20;2227.20;;;;;;5077271;28;19909;-75
2021/12/29 00:19:22;;;;;;;17.45;8.25;;;103.30;2227.20;;;;;;5077005;28;20063;-76
2021/12/29 00:21:47;;;;;;;;;;;103.30;2227.20;;;;;;5079417;28;20025;-75
2021/12/29 00:24:13;;;;;;;17.00;8.68;;;103.20;2227.20;;;;;;5076453;28;20659;-74
2021/12/29 00:26:38;;;;;;;;;;;103.30;2227.20;;;;;;5076375;28;20060;-75
2021/12/29 00:29:07;;;;;;;16.90;8.52;;;128.00;2252.80;;;;;;5076919;28;20275;-74
2021/12/29 00:31:33;;;;;;;14.80;8.13;;;103.30;2227.20;;;;;;5077276;28;20379;-74
2021/12/29 00:34:02;;;;;;;15.10;7.75;;;128.00;2252.80;;;;;;5077018;28;20096;-78
2021/12/29 00:36:28;;;;;;;16.35;8.40;;;103.30;2227.20;;;;;;5070694;28;20028;-75
2021/12/29 00:38:56;;;;;;;;;;;103.30;2227.20;;;;;;5078687;28;20020;-78
2021/12/29 00:41:22;;;;;;;16.17;8.48;;;128.10;2252.80;;;;;;5079460;28;19913;-75
2021/12/29 00:43:48;;;;;;;;;;;128.10;2252.80;;;;;;5078681;28;20024;-74
2021/12/29 00:46:19;;;;;;;15.25;8.20;;;128.00;2252.80;;;;;;5076868;28;20026;-79
2021/12/29 00:48:47;;;;;;;16.92;9.00;;;128.20;2252.80;;;;;;5078734;28;20024;-74
2021/12/29 00:51:13;;;;;;;17.65;7.93;;;128.10;2252.80;;;;;;5061990;28;20395;-74
2021/12/29 00:53:39;;;;;;;;;;;128.10;2252.80;;;;;;5058185;28;20024;-73
2021/12/29 00:56:05;;;;;;;15.57;7.35;;;128.10;2252.80;;;;;;5076816;28;19908;-74
2021/12/29 00:58:31;;;;;;;14.15;7.93;;;103.30;2227.20;;;;;;5076923;28;20035;-74
2021/12/29 01:00:59;;;;;;;13.68;7.15;;;103.30;2227.20;;;;;;5078109;28;20440;-74
2021/12/29 01:03:25;;;;;;;14.48;7.80;;;103.30;2227.20;;;;;;5076027;28;20027;-75
2021/12/29 01:05:52;;;;;;;15.40;7.35;;;128.00;2252.80;;;;;;5075897;28;20017;-74
2021/12/29 01:08:18;;;;;;;18.73;8.52;;;103.30;2227.20;;;;;;5075904;28;20024;-78
2021/12/29 01:10:46;;;;;;;16.98;8.07;;;103.30;2227.20;;;;;;5079780;28;20103;-77
2021/12/29 01:13:18;;;;;;;17.05;8.18;;;103.30;2227.20;;;;;;5076133;28;20060;-74
2021/12/29 01:18:35;;;;;;;16.08;7.95;;;103.30;2227.20;;;;;;5018931;28;20037;-78
2021/12/29 01:21:00;;;;;;;18.65;8.88;;;103.20;2227.20;;;;;;5028430;28;20080;-74
2021/12/29 01:23:26;;;;;;;;;;;103.20;2227.20;;;;;;4995661;28;20038;-75
2021/12/29 01:25:52;;;;;;;16.30;7.95;;;103.30;2227.20;;;;;;5017576;28;19912;-73
2021/12/29 01:28:18;;;;;;;;;;;103.30;2227.20;;;;;;5015597;28;20057;-75
2021/12/29 01:30:44;;;;;;;17.42;9.15;;;103.30;2227.20;;;;;;5016731;28;19920;-74
2021/12/29 01:33:10;;;;;;;14.63;7.63;;;103.30;2227.20;;;;;;5020690;28;20109;-78
2021/12/29 01:35:37;;;;;;;;;;;103.20;2227.20;;;;;;4996569;28;20117;-74
2021/12/29 01:38:04;;;;;;;16.50;6.78;;;103.20;2227.20;;;;;;5011267;28;19913;-74
2021/12/29 01:40:31;;;;;;;18.80;8.43;;;103.10;2227.20;;;;;;5017738;28;20070;-77
2021/12/29 01:42:57;;;;;;;15.07;7.97;;;103.20;2227.20;;;;;;5014209;28;20041;-72
2021/12/29 01:45:24;;;;;;;14.43;7.90;;;103.20;2227.20;;;;;;5018931;28;20029;-75
2021/12/29 01:47:49;;;;;;;14.48;8.68;;;103.30;2227.20;;;;;;5004144;28;20108;-74
2021/12/29 01:50:16;;;;;;;;;;;103.20;2227.20;;;;;;4999055;28;20220;-78
2021/12/29 01:52:42;;;;;;;14.63;7.85;;;103.20;2227.20;;;;;;5019820;28;19913;-74
2021/12/29 01:55:13;;;;;;;15.10;7.38;;;103.20;2227.20;;;;;;5017938;28;20476;-74
2021/12/29 01:57:41;;;;;;;16.05;8.48;;;103.30;2227.20;;;;;;5084762;28;20025;-73
2021/12/29 02:00:11;;;;;;;14.93;7.80;;;103.20;2227.20;;;;;;5082741;28;20020;-72
2021/12/29 02:02:38;;;;;;;15.70;7.88;;;103.20;2227.20;;;;;;5081314;28;20024;-75
2021/12/29 02:05:04;;;;;;;17.42;8.82;;;103.20;2227.20;;;;;;5080415;28;20028;-74
2021/12/29 02:07:30;;;;;;;;;;;103.30;2227.20;;;;;;5080260;28;20043;-74
2021/12/29 02:09:56;;;;;;;14.40;7.25;;;128.00;2252.80;;;;;;5079476;28;19904;-76
2021/12/29 02:12:21;;;;;;;;;;;128.00;2252.80;;;;;;5079265;28;20082;-73
2021/12/29 02:14:47;;;;;;;15.02;7.53;;;128.00;2252.80;;;;;;5084996;28;19914;-74
2021/12/29 02:17:13;;;;;;;;;;;128.00;2252.80;;;;;;5065333;28;20469;-78
2021/12/29 02:19:46;;;;;;;14.05;6.75;;;128.10;2252.80;;;;;;5078537;28;19989;-74
2021/12/29 02:22:36;;;;;;;15.13;7.80;;;128.10;2252.80;;;;;;5078974;28;20023;-75
2021/12/29 02:25:33;;;;;;;12.52;6.72;;;128.20;2252.80;;;;;;5081306;28;20079;-75
2021/12/29 02:27:53;;;;;;;11.95;6.18;;;128.20;2252.80;;;;;;5075859;28;20094;-74
2021/12/29 02:30:25;;;;;;;12.57;6.45;;;128.40;2252.80;;;;;;5076349;28;20024;-78
2021/12/29 02:33:02;;;;;;;15.15;7.03;;;128.50;2252.80;;;;;;5082084;28;20028;-78
2021/12/29 02:35:28;;;;;;;15.15;6.93;;;128.40;2252.80;;;;;;5083655;28;20020;-76
2021/12/29 02:37:54;;;;;;;12.57;7.20;;;128.50;2252.80;;;;;;5079306;28;20100;-74
2021/12/29 02:40:19;;;;;;;;;;;128.50;2252.80;;;;;;5079629;28;20099;-78
2021/12/29 02:42:45;;;;;;;13.98;7.40;;;128.60;2252.80;;;;;;5060446;28;19904;-78
2021/12/29 02:45:14;;;;;;;14.32;7.03;;;128.40;2252.80;;;;;;5063301;28;20016;-79
2021/12/29 02:47:42;;;;;;;14.07;7.90;;;128.50;2252.80;;;;;;5081168;28;20043;-74
2021/12/29 02:50:09;;;;;;;16.17;7.78;;;128.40;2252.80;;;;;;5079668;28;20028;-79
2021/12/29 02:52:35;;;;;;;14.77;8.23;;;128.40;2252.80;;;;;;5084086;28;20047;-77
2021/12/29 02:55:02;;;;;;;19.55;9.63;;;128.40;2252.80;;;;;;5084158;28;20021;-73
2021/12/29 02:57:28;;;;;;;20.60;10.18;;;128.40;2252.80;;;;;;5075585;28;20024;-78
2021/12/29 02:59:53;;;;;;;;;;;128.30;2252.80;;;;;;5079792;28;20085;-74
2021/12/29 03:02:20;;;;;;;19.65;9.13;;;128.30;2252.80;;;;;;5080994;28;19995;-74
2021/12/29 03:04:46;;;;;;;23.65;11.27;;;128.40;2252.80;;;;;;5067050;28;20506;-79
2021/12/29 03:07:12;;;;;;;;;;;128.40;2252.80;;;;;;5065233;28;20028;-74
2021/12/29 03:09:38;;;;;;;20.15;10.43;;;128.40;2252.80;;;;;;5078730;28;19911;-79
2021/12/29 03:12:03;;;;;;;;;;;128.40;2252.80;;;;;;5062566;28;20035;-74
2021/12/29 03:14:29;;;;;;;22.65;9.77;;;128.40;2252.80;;;;;;5079381;28;19912;-78
2021/12/29 03:16:55;;;;;;;;;;;128.30;2252.80;;;;;;5067424;28;20028;-76
2021/12/29 03:19:21;;;;;;;22.60;10.80;;;128.20;2252.80;;;;;;5078858;28;20419;-74
2021/12/29 03:21:46;;;;;;;;;;;128.20;2252.80;;;;;;5079233;28;20396;-74
2021/12/29 03:24:14;;;;;;;23.23;10.20;;;128.20;2252.80;;;;;;5080784;28;19904;-76
2021/12/29 03:26:40;;;;;;;19.65;10.20;;;128.20;2252.80;;;;;;5064987;28;20028;-76
2021/12/29 03:29:06;;;;;;;;;;;128.20;2252.80;;;;;;5065915;28;20391;-78
2021/12/29 03:31:33;;;;;;;17.42;9.35;;;128.00;2252.80;;;;;;5060634;28;19934;-74
2021/12/29 03:33:59;;;;;;;16.23;8.95;;;128.00;2252.80;;;;;;5079344;28;20008;-76
2021/12/29 03:36:26;;;;;;;17.48;8.98;;;128.00;2252.80;;;;;;5065373;28;20028;-78
2021/12/29 03:38:51;;;;;;;17.48;8.52;;;128.00;2252.80;;;;;;5066418;28;20024;-75
2021/12/29 03:41:18;;;;;;;;;;;128.10;2252.80;;;;;;5063982;28;20024;-75
2021/12/29 03:43:44;;;;;;;13.38;7.13;;;128.20;2252.80;;;;;;5060001;28;19904;-76
2021/12/29 03:46:11;;;;;;;14.23;7.25;;;128.10;2252.80;;;;;;5080640;28;20036;-76
2021/12/29 03:48:39;;;;;;;17.88;8.45;;;128.20;2252.80;;;;;;5079283;28;20020;-74
2021/12/29 03:51:07;;;;;;;15.95;8.05;;;128.30;2252.80;;;;;;5079894;28;20023;-74
2021/12/29 03:53:33;;;;;;;16.20;8.93;;;128.10;2252.80;;;;;;5060262;28;20020;-79
2021/12/29 03:56:00;;;;;;;16.13;7.40;;;128.20;2252.80;;;;;;5079008;28;20021;-77
2021/12/29 03:58:28;;;;;;;14.10;8.27;;;128.30;2252.80;;;;;;5082986;28;20031;-78
2021/12/29 04:01:15;;;;;;;13.20;7.55;;;128.20;2252.80;;;;;;5078358;28;20025;-74
2021/12/29 04:03:45;;;;;;;14.50;6.60;;;128.50;2252.80;;;;;;5075027;28;20419;-79
2021/12/29 04:06:13;;;;;;;15.13;7.50;;;128.30;2252.80;;;;;;5078588;28;20066;-77
2021/12/29 04:08:38;;;;;;;13.55;7.35;;;128.50;2252.80;;;;;;5078342;28;20476;-79
2021/12/29 04:11:04;;;;;;;;;;;128.50;2252.80;;;;;;5078922;28;20055;-74
2021/12/29 04:13:30;;;;;;;12.63;7.35;;;128.40;2252.80;;;;;;5078241;28;19915;-79
2021/12/29 04:15:56;;;;;;;;;;;128.40;2252.80;;;;;;5064489;28;20073;-74
2021/12/29 04:18:27;;;;;;;13.98;7.13;;;128.40;2252.80;;;;;;5059921;28;19911;-73
2021/12/29 04:20:57;;;;;;;13.02;7.38;;;128.40;2252.80;;;;;;5078527;28;20085;-79
2021/12/29 04:23:25;;;;;;;21.98;11.90;;;128.20;2252.80;;;;;;5078627;28;20392;-79
2021/12/29 04:25:54;;;;;;;16.45;9.95;;;128.30;2252.80;;;;;;5085024;28;20104;-75
2021/12/29 04:28:23;;;;;;;16.13;9.20;;;128.50;2252.80;;;;;;5073391;28;20529;-74
2021/12/29 04:30:51;;;;;;;14.75;9.40;;;128.40;2252.80;;;;;;5071839;28;20157;-74
2021/12/29 04:33:18;;;;;;;13.20;7.63;;;128.40;2252.80;;;;;;5087001;28;20059;-79
2021/12/29 04:35:45;;;;;;;13.25;7.22;;;128.40;2252.80;;;;;;5079417;28;20095;-74
2021/12/29 04:38:11;;;;;;;19.25;11.05;;;128.40;2252.80;;;;;;5063698;28;20017;-80
2021/12/29 04:40:37;;;;;;;;;;;128.40;2252.80;;;;;;5078850;28;20043;-78
2021/12/29 04:43:03;;;;;;;29.80;16.60;;;128.50;2252.80;;;;;;5079950;28;19973;-74
2021/12/29 04:45:29;;;;;;;33.00;16.60;;;128.70;2252.80;;;;;;5077499;28;20025;-79
2021/12/29 04:47:54;;;;;;;;;;;128.90;2252.80;;;;;;5059932;28;20043;-75
2021/12/29 04:50:27;;;;;;;20.25;11.27;;;128.90;2252.80;;;;;;5059754;28;19927;-76
2021/12/29 04:53:03;;;;;;;20.70;10.98;;;153.60;2252.80;;;;;;5059565;28;20037;-74
2021/12/29 04:55:30;;;;;;;12.48;6.85;;;153.60;2252.80;;;;;;5073433;28;20089;-74
2021/12/29 04:57:58;;;;;;;18.95;11.05;;;153.60;2252.80;;;;;;5074835;28;20024;-75
2021/12/29 05:00:25;;;;;;;20.08;11.30;;;153.70;2252.80;;;;;;5064530;28;20115;-78
2021/12/29 05:02:52;;;;;;;20.92;11.68;;;153.80;2252.80;;;;;;5079897;28;20016;-75
2021/12/29 05:05:22;;;;;;;27.25;15.07;;;153.90;2252.80;;;;;;5074963;28;20471;-74
2021/12/29 05:10:34;;;;;;;21.02;13.18;;;153.90;2252.80;;;;;;5085793;28;20054;-74
2021/12/29 05:13:00;;;;;;;16.08;9.57;;;153.60;2252.80;;;;;;5083382;28;20051;-74
2021/12/29 05:15:26;;;;;;;;;;;128.80;2252.80;;;;;;5077808;28;20056;-78
2021/12/29 05:17:52;;;;;;;20.13;12.15;;;128.70;2252.80;;;;;;5059668;28;20045;-73
2021/12/29 05:20:18;;;;;;;19.98;10.48;;;128.70;2252.80;;;;;;5080066;28;20020;-75
2021/12/29 05:22:44;;;;;;;;;;;128.50;2252.80;;;;;;5079735;28;20107;-74
2021/12/29 05:25:10;;;;;;;21.08;10.98;;;128.50;2252.80;;;;;;5077997;28;19908;-74
2021/12/29 05:27:35;;;;;;;;;;;128.40;2252.80;;;;;;5078378;28;20040;-74
2021/12/29 05:30:03;;;;;;;18.60;10.95;;;128.40;2252.80;;;;;;5071897;28;19909;-74
2021/12/29 05:32:30;;;;;;;16.67;10.07;;;128.40;2252.80;;;;;;5064095;28;20120;-73
2021/12/29 05:34:56;;;;;;;15.90;8.90;;;128.70;2252.80;;;;;;5062600;28;20033;-78
2021/12/29 05:37:23;;;;;;;18.00;9.45;;;128.30;2252.80;;;;;;5074577;28;20030;-74
2021/12/29 05:39:49;;;;;;;18.33;10.10;;;128.80;2252.80;;;;;;5056857;28;20031;-79
2021/12/29 05:42:15;;;;;;;17.52;9.88;;;128.40;2252.80;;;;;;5074609;28;20028;-74
2021/12/29 05:44:41;;;;;;;18.88;8.85;;;128.40;2252.80;;;;;;5077359;28;20013;-74
2021/12/29 05:47:07;;;;;;;;;;;128.20;2252.80;;;;;;5080524;28;20127;-75
2021/12/29 05:49:33;;;;;;;20.15;10.75;;;128.30;2252.80;;;;;;5056943;28;20358;-79
2021/12/29 05:51:59;;;;;;;27.35;13.55;;;128.30;2252.80;;;;;;5074621;28;20094;-78
2021/12/29 05:54:24;;;;;;;;;;;128.30;2252.80;;;;;;5075075;28;20476;-74
2021/12/29 05:56:50;;;;;;;17.05;8.32;;;128.40;2252.80;;;;;;5067137;28;20249;-79
2021/12/29 05:59:15;;;;;;;;;;;128.50;2252.80;;;;;;5071479;28;20036;-74
2021/12/29 06:01:43;;;;;;;14.40;7.38;;;128.70;2252.80;;;;;;5071758;28;19904;-74
2021/12/29 06:04:09;;;;;;;19.23;11.35;;;128.80;2252.80;;;;;;5074690;28;20044;-73
2021/12/29 06:06:34;;;;;;;;;;;128.80;2252.80;;;;;;5077276;28;20067;-77
2021/12/29 06:09:00;;;;;;;16.00;8.43;;;128.90;2252.80;;;;;;5074711;28;19911;-79
2021/12/29 06:11:26;;;;;;;;;;;128.90;2252.80;;;;;;5075026;28;20039;-75
2021/12/29 06:13:51;;;;;;;18.08;10.48;;;153.60;2252.80;;;;;;5074327;28;19911;-74
2021/12/29 06:16:17;;;;;;;;;;;128.90;2252.80;;;;;;5072305;28;20108;-78
2021/12/29 06:18:43;;;;;;;13.85;8.02;;;153.60;2252.80;;;;;;5064210;28;19911;-79
2021/12/29 06:21:08;;;;;;;;;;;128.90;2252.80;;;;;;5075136;28;20046;-76
2021/12/29 06:23:34;;;;;;;21.55;10.98;;;153.60;2252.80;;;;;;5056911;28;19911;-78
2021/12/29 06:26:00;;;;;;;;;;;128.80;2252.80;;;;;;5075201;28;20029;-75
2021/12/29 06:28:25;;;;;;;23.10;13.65;;;153.60;2252.80;;;;;;5062704;28;19999;-79
2021/12/29 06:30:51;;;;;;;;;;;128.90;2252.80;;;;;;5079289;28;20474;-79
2021/12/29 06:33:17;;;;;;;19.08;11.75;;;128.90;2252.80;;;;;;5078074;28;20020;-74
2021/12/29 06:35:42;;;;;;;;;;;128.90;2252.80;;;;;;5078373;28;20016;-75
2021/12/29 06:38:08;;;;;;;24.73;15.25;;;128.70;2252.80;;;;;;5078465;28;19905;-74
2021/12/29 06:40:33;;;;;;;;;;;153.60;2252.80;;;;;;5068645;28;20422;-79
2021/12/29 06:42:59;;;;;;;26.70;17.25;;;153.70;2252.80;;;;;;5080938;28;20278;-78
2021/12/29 06:45:26;;;;;;;;;;;128.90;2252.80;;;;;;5066111;28;20055;-74
2021/12/29 06:47:52;;;;;;;27.05;16.38;;;153.60;2252.80;;;;;;5078925;28;19911;-78
2021/12/29 06:50:18;;;;;;;;;;;153.80;2252.80;;;;;;5078993;28;20095;-73
2021/12/29 06:52:43;;;;;;;39.42;22.55;;;153.80;2252.80;;;;;;5067526;28;19934;-79
2021/12/29 06:55:09;;;;;;;;;;;153.80;2252.80;;;;;;5078451;28;20071;-79
2021/12/29 06:57:35;;;;;;;33.20;20.40;;;153.90;2252.80;;;;;;5077257;28;20446;-77
2021/12/29 07:00:01;;;;;;;;;;;153.90;2252.80;;;;;;5081321;28;20388;-79
2021/12/29 07:02:26;;;;;;;29.40;15.75;;;153.60;2252.80;;;;;;5078853;28;19908;-74
2021/12/29 07:04:52;;;;;;;;;;;153.60;2252.80;;;;;;5068945;28;20452;-75
2021/12/29 07:07:18;;;;;;;26.65;14.43;;;153.80;2252.80;;;;;;5078328;28;19904;-74
2021/12/29 07:09:43;;;;;;;;;;;153.80;2252.80;;;;;;5078610;28;20048;-76
2021/12/29 07:12:09;;;;;;;36.10;18.65;;;154.00;2252.80;;;;;;5079358;28;19913;-74
2021/12/29 07:14:38;;;;;;;33.80;19.35;;;154.10;2252.80;;;;;;5079571;28;20017;-74
2021/12/29 07:17:05;;;;;;;29.33;17.98;;;154.30;2252.80;;;;;;5063613;28;20089;-74
2021/12/29 07:19:30;;;;;;;23.98;13.93;;;154.30;2252.80;;;;;;5077143;28;20081;-75
2021/12/29 07:21:56;;;;;;;;;;;154.40;2252.80;;;;;;5077959;28;20464;-74
2021/12/29 07:24:22;;;;;;;25.30;13.77;;;154.30;2252.80;;;;;;5077735;28;19935;-75
2021/12/29 07:26:47;;;;;;;;;;;154.30;2252.80;;;;;;5079986;28;20067;-74
2021/12/29 07:29:14;;;;;;;27.05;13.93;;;154.50;2252.80;;;;;;5076992;28;20291;-74
2021/12/29 07:31:40;;;;;;;26.17;15.32;;;154.50;2252.80;;;;;;5066660;28;20054;-74
2021/12/29 07:34:07;;;;;;;;;;;154.50;2252.80;;;;;;5080330;28;20468;-76
2021/12/29 07:36:33;;;;;;;19.92;12.70;;;179.20;2252.80;;;;;;5066277;28;19927;-75
2021/12/29 07:38:59;;;;;;;37.13;19.45;;;154.50;2252.80;;;;;;5078285;28;20543;-73
2021/12/29 07:41:25;;;;;;;;;;;154.50;2252.80;;;;;;5076201;28;20111;-75
2021/12/29 07:43:51;;;;;;;25.83;14.65;;;154.20;2252.80;;;;;;5076859;28;19951;-75
2021/12/29 07:46:18;;;;;;;43.80;19.50;;;154.10;2252.80;;;;;;5079728;28;20012;-74
2021/12/29 07:48:43;;;;;;;41.97;22.55;;;154.00;2252.80;;;;;;5079385;28;20395;-77
2021/12/29 07:51:09;;;;;;;;;;;154.00;2252.80;;;;;;5078091;28;20097;-74
2021/12/29 07:53:37;;;;;;;42.92;20.98;;;153.90;2252.80;;;;;;5078771;28;19912;-76
2021/12/29 07:56:07;;;;;;;48.78;24.40;;;153.90;2252.80;;;;;;5063701;28;20384;-78
2021/12/29 07:58:34;;;;;;;77.22;40.95;;;153.70;2252.80;;;;;;5076817;28;20024;-74
2021/12/29 08:01:01;;;;;;;87.85;48.63;;;153.60;2252.80;;;;;;5058967;28;20472;-73
2021/12/29 08:03:26;;;;;;;47.15;27.02;;;128.90;2252.80;;;;;;5077105;28;20051;-73
2021/12/29 08:05:52;;;;;;;;;;;128.80;2252.80;;;;;;5078848;28;20044;-73
2021/12/29 08:08:18;;;;;;;52.45;24.13;;;128.80;2252.80;;;;;;5076356;28;19904;-75
2021/12/29 08:10:43;;;;;;;;;;;128.60;2252.80;;;;;;5077029;28;20031;-76
2021/12/29 08:13:09;;;;;;;44.83;22.20;;;128.80;2252.80;;;;;;5077385;28;20422;-74
2021/12/29 08:15:35;;;;;;;;;;;153.60;2252.80;;;;;;5064618;28;20021;-75
2021/12/29 08:18:03;;;;;;;28.45;17.25;;;153.70;2252.80;;;;;;5077205;28;20265;-77
2021/12/29 08:20:31;;;;;;;42.97;24.00;;;153.60;2252.80;;;;;;5072320;28;20016;-74
2021/12/29 08:22:57;;;;;;;39.58;20.77;;;128.90;2252.80;;;;;;5064077;28;20092;-75
2021/12/29 08:25:22;;;;;;;;;;;128.90;2252.80;;;;;;5076879;28;20535;-77
2021/12/29 08:27:48;;;;;;;41.08;22.23;;;128.90;2252.80;;;;;;5067661;28;19928;-74
2021/12/29 08:30:14;;;;;;;;;;;128.90;2252.80;;;;;;5076682;28;20036;-77
2021/12/29 08:32:40;;;;;;;52.25;28.90;;;128.90;2252.80;;;;;;5076047;28;20363;-74
2021/12/29 08:35:06;;;;;;;35.70;20.55;;;128.90;2252.80;;;;;;5077032;28;20008;-75
2021/12/29 08:37:32;;;;;;;34.72;20.38;;;128.80;2252.80;;;;;;5077576;28;20021;-74
2021/12/29 08:39:58;;;;;;;;;;;128.90;2252.80;;;;;;5077710;28;20016;-77
2021/12/29 08:42:24;;;;;;;34.80;18.75;;;128.80;2252.80;;;;;;5058128;28;20272;-77
2021/12/29 08:44:50;;;;;;;;;;;128.80;2252.80;;;;;;5076385;28;20094;-76
2021/12/29 08:47:15;;;;;;;34.83;18.50;;;128.90;2252.80;;;;;;5077232;28;20320;-74
2021/12/29 08:49:41;;;;;;;;;;;128.80;2252.80;;;;;;5074974;28;20036;-74
2021/12/29 08:52:07;;;;;;;33.38;19.55;;;153.60;2252.80;;;;;;5087457;28;20018;-74
2021/12/29 08:54:34;;;;;;;;;;;153.70;2252.80;;;;;;5093047;28;20103;-74
2021/12/29 08:57:01;;;;;;;32.08;16.88;;;153.70;2252.80;;;;;;5074859;28;19919;-73
2021/12/29 08:59:27;;;;;;;31.63;16.95;;;153.70;2252.80;;;;;;5092638;28;20030;-74
2021/12/29 09:01:52;;;;;;;;;;;153.80;2252.80;;;;;;5093036;28;20020;-74
2021/12/29 09:04:18;;;;;;;43.63;20.42;;;153.70;2252.80;;;;;;5092820;28;20363;-77
2021/12/29 09:06:44;;;;;;;;;;;153.60;2252.80;;;;;;5092940;28;20103;-74
2021/12/29 09:09:10;;;;;;;40.83;16.52;;;153.60;2252.80;;;;;;5092688;28;19904;-74
2021/12/29 09:11:35;;;;;;;;;;;128.90;2252.80;;;;;;5092802;28;20028;-74
2021/12/29 09:14:01;;;;;;;37.90;21.27;;;128.90;2252.80;;;;;;5092572;28;20419;-75
2021/12/29 09:16:27;;;;;;;;;;;128.80;2252.80;;;;;;5092533;28;20020;-76
2021/12/29 09:18:53;;;;;;;36.47;18.00;;;128.80;2252.80;;;;;;5092723;28;19949;-77
2021/12/29 09:21:20;;;;;;;36.83;17.92;;;128.80;2252.80;;;;;;5092277;28;20031;-75
2021/12/29 09:23:46;;;;;;;24.48;13.82;;;128.70;2252.80;;;;;;5092514;28;20017;-73
2021/12/29 09:26:14;;;;;;;35.55;18.70;;;153.70;2252.80;;;;;;5091776;28;20030;-75
2021/12/29 09:28:44;;;;;;;25.73;14.68;;;153.60;2252.80;;;;;;5074219;28;20036;-74
2021/12/29 09:31:11;;;;;;;26.38;14.80;;;153.80;2252.80;;;;;;5092414;28;20024;-76
2021/12/29 09:33:38;;;;;;;26.92;14.82;;;153.80;2252.80;;;;;;5092417;28;20020;-77
2021/12/29 09:36:04;;;;;;;29.60;15.05;;;153.80;2252.80;;;;;;5091911;28;20394;-74
2021/12/29 09:38:34;;;;;;;25.70;15.85;;;153.80;2252.80;;;;;;5092238;28;20027;-75
2021/12/29 09:41:01;;;;;;;26.75;15.65;;;153.60;2252.80;;;;;;5074278;28;20032;-75
2021/12/29 09:43:27;;;;;;;31.50;16.25;;;153.60;2252.80;;;;;;5092002;28;20021;-76
2021/12/29 09:45:52;;;;;;;;;;;128.90;2252.80;;;;;;5092786;28;20031;-74
2021/12/29 09:48:18;;;;;;;26.10;13.27;;;153.70;2252.80;;;;;;5092251;28;19950;-77
2021/12/29 09:50:44;;;;;;;;;;;153.60;2252.80;;;;;;5092607;28;20016;-74
2021/12/29 09:53:11;;;;;;;24.73;14.30;;;153.60;2252.80;;;;;;5074441;28;19947;-75
2021/12/29 09:55:37;;;;;;;36.88;21.08;;;154.00;2252.80;;;;;;5092055;28;20027;-73
2021/12/29 09:58:04;;;;;;;40.30;21.25;;;153.70;2252.80;;;;;;5073416;28;20087;-74
2021/12/29 10:00:37;;;;;;;37.90;20.17;;;153.80;2252.80;;;;;;5091665;28;20035;-75
2021/12/29 10:03:07;;;;;;;34.22;17.42;;;153.70;2252.80;;;;;;5092105;28;20333;-76
2021/12/29 10:05:34;;;;;;;30.95;17.17;;;153.70;2252.80;;;;;;5094675;28;20024;-77
2021/12/29 10:08:06;;;;;;;22.75;14.20;;;153.80;2252.80;;;;;;5095833;28;20032;-74
2021/12/29 10:10:35;;;;;;;26.48;14.85;;;153.70;2252.80;;;;;;5095992;28;20024;-76
2021/12/29 10:13:03;;;;;;;25.60;11.95;;;153.60;2252.80;;;;;;5095668;28;20387;-74
2021/12/29 10:15:35;;;;;;;24.25;13.85;;;153.70;2252.80;;;;;;5095768;28;20024;-76
2021/12/29 10:18:04;;;;;;;26.77;14.40;;;153.70;2252.80;;;;;;5095601;28;20074;-75
2021/12/29 10:20:30;;;;;;;30.90;17.48;;;153.80;2252.80;;;;;;5095824;28;20038;-74
2021/12/29 10:22:57;;;;;;;;;;;154.20;2252.80;;;;;;5077813;28;20097;-75
2021/12/29 10:25:24;;;;;;;27.15;15.38;;;154.30;2252.80;;;;;;5092332;28;19915;-74
2021/12/29 10:27:52;;;;;;;35.78;18.08;;;154.10;2252.80;;;;;;5076326;28;20127;-76
2021/12/29 10:30:28;;;;;;;33.25;17.38;;;154.00;2252.80;;;;;;5077990;28;20025;-77
2021/12/29 10:32:58;;;;;;;31.55;16.73;;;154.00;2252.80;;;;;;5081385;28;20032;-74
2021/12/29 10:35:31;;;;;;;28.55;14.90;;;154.10;2252.80;;;;;;5077265;28;20074;-74
2021/12/29 10:38:14;;;;;;;29.23;15.05;;;154.10;2252.80;;;;;;5089732;28;20074;-76
2021/12/29 10:40:40;;;;;;;29.30;15.73;;;154.00;2252.80;;;;;;5075085;28;20020;-72
2021/12/29 10:43:06;;;;;;;;;;;154.00;2252.80;;;;;;5089780;28;20016;-76
2021/12/29 10:45:37;;;;;;;33.45;18.27;;;154.10;2252.80;;;;;;5089649;28;19904;-76
2021/12/29 10:48:18;;;;;;;40.45;21.20;;;154.10;2252.80;;;;;;5064643;28;20387;-74
2021/12/29 10:51:04;;;;;;;32.75;19.27;;;154.20;2252.80;;;;;;5074614;28;20023;-74
2021/12/29 10:53:38;;;;;;;31.67;17.75;;;154.30;2252.80;;;;;;5079317;28;20036;-73
2021/12/29 10:56:22;;;;;;;38.00;18.08;;;154.50;2252.80;;;;;;5095049;28;20035;-74
2021/12/29 10:58:49;;;;;;;34.13;17.58;;;154.50;2252.80;;;;;;5076677;28;20078;-73
2021/12/29 11:01:16;;;;;;;29.05;15.95;;;179.30;2252.80;;;;;;5076795;28;20024;-75
2021/12/29 11:03:49;;;;;;;36.67;19.33;;;179.50;2252.80;;;;;;5094772;28;20023;-74
2021/12/29 11:06:17;;;;;;;37.60;18.17;;;179.20;2252.80;;;;;;5094674;28;20073;-76
2021/12/29 11:08:48;;;;;;;40.15;24.50;;;154.40;2252.80;;;;;;5077061;28;20521;-76
2021/12/29 11:11:13;;;;;;;39.47;22.23;;;154.50;2252.80;;;;;;5094466;28;20028;-75
2021/12/29 11:13:41;;;;;;;;;;;179.30;2252.80;;;;;;5077218;28;20459;-75
2021/12/29 11:16:07;;;;;;;;;;;179.40;2252.80;;;;;;5094607;28;20367;-74
2021/12/29 11:18:47;;;;;;;39.72;21.38;;;179.50;2252.80;;;;;;5094675;28;19908;-77
2021/12/29 11:21:29;;;;;;;41.50;20.20;;;179.40;2252.80;;;;;;5094653;28;20468;-75
2021/12/29 11:23:55;;;;;;;41.78;23.02;;;179.60;2252.80;;;;;;5094007;28;20103;-73
2021/12/29 11:26:32;;;;;;;41.67;24.17;;;179.60;2252.80;;;;;;5094157;28;20027;-76
2021/12/29 11:29:07;;;;;;;46.85;24.30;;;179.80;2252.80;;;;;;5094210;28;20028;-75
2021/12/29 11:31:49;;;;;;;38.17;18.30;;;179.80;2252.80;;;;;;5093882;28;20028;-75
2021/12/29 11:34:16;;;;;;;39.60;21.27;;;179.90;2252.80;;;;;;5083845;28;20366;-74
2021/12/29 11:36:43;;;;;;;41.28;21.10;;;180.00;2252.80;;;;;;5076130;28;20111;-74
2021/12/29 11:39:09;;;;;;;50.97;26.20;;;180.10;2252.80;;;;;;5072566;28;20021;-76
2021/12/29 11:41:34;;;;;;;;;;;180.10;2252.80;;;;;;5094317;28;20111;-74
2021/12/29 11:44:00;;;;;;;44.33;20.33;;;204.80;2252.80;;;;;;5093712;28;19947;-73
2021/12/29 11:46:26;;;;;;;;;;;204.80;2252.80;;;;;;5094453;28;20044;-74
2021/12/29 11:48:52;;;;;;;33.67;17.92;;;204.80;2252.80;;;;;;5093761;28;19908;-74
2021/12/29 11:51:34;;;;;;;42.72;23.08;;;180.10;2252.80;;;;;;5075685;28;20043;-74
2021/12/29 11:54:11;;;;;;;38.35;20.88;;;204.80;2252.80;;;;;;5093831;28;20020;-74
2021/12/29 11:56:43;;;;;;;57.40;29.73;;;180.10;2252.80;;;;;;5073055;28;20017;-76
2021/12/29 11:59:09;;;;;;;44.50;24.38;;;204.80;2252.80;;;;;;5081219;28;20337;-77
2021/12/29 12:01:36;;;;;;;35.42;19.30;;;204.80;2252.80;;;;;;5082181;28;20060;-76
2021/12/29 12:04:06;;;;;;;39.42;23.67;;;204.80;2252.80;;;;;;5083273;28;20066;-76
2021/12/29 12:06:36;;;;;;;45.08;24.67;;;205.00;2252.80;;;;;;5080172;28;20031;-75
2021/12/29 12:09:06;;;;;;;48.47;29.48;;;205.10;2252.80;;;;;;5081208;28;20028;-77
2021/12/29 12:11:32;;;;;;;30.83;18.42;;;205.20;2252.80;;;;;;5083090;28;20159;-76
2021/12/29 12:13:58;;;;;;;57.90;30.70;;;205.20;2252.80;;;;;;5072904;28;20520;-73
2021/12/29 12:16:26;;;;;;;;;;;205.20;2252.80;;;;;;5073868;28;20028;-76
2021/12/29 12:18:55;;;;;;;35.60;18.25;;;205.20;2252.80;;;;;;5054924;28;19912;-76
2021/12/29 12:21:39;;;;;;;32.45;15.43;;;205.30;2252.80;;;;;;5074075;28;20020;-75
2021/12/29 12:24:25;;;;;;;45.50;21.05;;;205.30;2252.80;;;;;;5055636;28;20811;-75
2021/12/29 12:27:11;;;;;;;43.30;21.48;;;205.30;2252.80;;;;;;5072049;28;20053;-73
2021/12/29 12:29:41;;;;;;;33.15;18.30;;;205.40;2252.80;;;;;;5073009;28;20107;-74
2021/12/29 12:32:17;;;;;;;39.60;20.60;;;205.40;2252.80;;;;;;5072636;28;20069;-76